KLYO/LYO METAR and TAF weather

Enter ICAO airport designator
Station Type Date Time Source
KLYO METAR 2019/12/07 07:35 UTC NOAA

KLYO 070735Z AUTO 18005KT 10SM CLR M02/M06 A3031 RMK AO2 T10241059


Station Type Date Time Source
KLYO Decoded METAR 2019/12/07 07:35 UTC NOAA

Station name not available
Dec 07, 2019 - 02:35 AM EST / 2019.12.07 0735 UTC
Wind: from the S (180 degrees) at 6 MPH (5 KT):0
Visibility: 10 mile(s):0
Sky conditions: clear
Temperature: 27.7 F (-2.4 C)
Windchill: 21 F (-6 C):1
Dew Point: 21.4 F (-5.9 C)
Relative Humidity: 76%
Pressure (altimeter): 30.31 in. Hg (1026 hPa)
ob: KLYO 070735Z AUTO 18005KT 10SM CLR M02/M06 A3031 RMK AO2 T10241059
cycle: 7

Station Type Date Time Source
KLYO TAF UTC NOAA

Error!

Example: see airport list